Terminal Aerodrome Forecast
Issued by NWS

Home | Current Version | Previous Version | Text Only | Print | Product List | Glossary On
Versions: 1 2 3 4 5 6 7 8 9 10 11 12 13 14
649
FTUS43 KMPX 232342
TAFRWF
TAF
KRWF 232342Z 2400/2424 02013G23KT P6SM OVC070
      TEMPO 2404/2408 4SM -SN OVC025
     FM241800 35016G28KT P6SM OVC150=

USA.gov is the U.S. government's official web portal to all federal, state and local government web resources and services.